Time;durP1;ratioP1;P1;durP2;ratioP2;P2;SDS_P1;SDS_P2;PMS_P1;PMS_P2;Temp;Humidity;BMP_temperature;BMP_pressure;BME280_temperature;BME280_humidity;BME280_pressure;Samples;Min_cycle;Max_cycle;Signal;HPM_P1;HPM_P2
2022/05/09 00:00:18;;;;;;;6.85;2.72;;;12.90;99.90;;;;;;5026355;28;20038;-82
2022/05/09 00:02:47;;;;;;;4.50;2.45;;;12.90;99.90;;;;;;5028171;28;20026;-81
2022/05/09 00:05:16;;;;;;;4.88;2.35;;;12.80;99.90;;;;;;5010276;28;20062;-82
2022/05/09 00:07:44;;;;;;;4.38;2.42;;;12.80;99.90;;;;;;5033115;28;20071;-85
2022/05/09 00:10:16;;;;;;;6.47;2.20;;;12.80;99.90;;;;;;5038771;28;20026;-84
2022/05/09 00:12:42;;;;;;;3.67;2.17;;;12.70;99.90;;;;;;4999465;28;20065;-82
2022/05/09 00:15:08;;;;;;;3.58;2.30;;;12.60;99.90;;;;;;4997934;28;20044;-82
2022/05/09 00:17:34;;;;;;;4.80;2.08;;;12.50;99.90;;;;;;5013293;28;20064;-82
2022/05/09 00:20:00;;;;;;;2.67;1.92;;;12.50;99.90;;;;;;5026515;28;20124;-84
2022/05/09 00:22:26;;;;;;;5.10;2.42;;;12.40;99.90;;;;;;5012486;28;20464;-84
2022/05/09 00:24:51;;;;;;;2.72;1.70;;;12.40;99.90;;;;;;5030831;28;20026;-84
2022/05/09 00:27:17;;;;;;;2.72;2.25;;;12.40;99.90;;;;;;5012412;28;20088;-85
2022/05/09 00:29:43;;;;;;;4.93;2.13;;;12.40;99.90;;;;;;5000721;28;20109;-85
2022/05/09 00:32:09;;;;;;;3.72;2.30;;;12.30;99.90;;;;;;5014395;28;20435;-84
2022/05/09 00:34:37;;;;;;;4.93;2.38;;;12.30;99.90;;;;;;5029487;28;20045;-84
2022/05/09 00:37:04;;;;;;;4.47;2.13;;;12.20;99.90;;;;;;5012180;28;20141;-85
2022/05/09 00:39:30;;;;;;;2.88;2.30;;;12.20;99.90;;;;;;5028636;28;20029;-84
2022/05/09 00:42:06;;;;;;;3.97;2.20;;;12.20;99.90;;;;;;5029373;28;20679;-85
2022/05/09 00:44:32;;;;;;;4.82;2.20;;;12.20;99.90;;;;;;4996723;28;20037;-84
2022/05/09 00:46:58;;;;;;;3.45;2.03;;;12.20;99.90;;;;;;5028495;28;20045;-84
2022/05/09 00:49:32;;;;;;;4.85;2.33;;;12.10;99.90;;;;;;5028827;28;20132;-85
2022/05/09 00:52:08;;;;;;;3.72;2.45;;;12.10;99.90;;;;;;5029235;28;20049;-85
2022/05/09 00:54:43;;;;;;;3.42;2.25;;;12.10;99.90;;;;;;5045691;28;20128;-85
2022/05/09 00:57:11;;;;;;;;;;;12.00;99.90;;;;;;5029000;28;20048;-84
2022/05/09 00:59:38;;;;;;;3.97;2.47;;;11.90;99.90;;;;;;5042428;28;19958;-84
2022/05/09 01:02:04;;;;;;;6.38;2.70;;;11.90;99.90;;;;;;5013487;28;20072;-85
2022/05/09 01:04:35;;;;;;;3.17;2.00;;;11.70;99.90;;;;;;4992661;28;20046;-84
2022/05/09 01:07:01;;;;;;;3.03;2.17;;;11.60;99.90;;;;;;5008966;28;20089;-85
2022/05/09 01:09:26;;;;;;;3.75;2.50;;;11.60;99.90;;;;;;5025227;28;20501;-84
2022/05/09 01:11:53;;;;;;;3.00;2.22;;;11.50;99.90;;;;;;5000896;28;20080;-84
2022/05/09 01:14:27;;;;;;;4.13;2.13;;;11.50;99.90;;;;;;5004069;28;20033;-84
2022/05/09 01:16:57;;;;;;;3.70;2.03;;;11.50;99.90;;;;;;5019048;28;20120;-84
2022/05/09 01:19:29;;;;;;;5.55;2.42;;;11.50;99.90;;;;;;5000679;28;20077;-84
2022/05/09 01:21:55;;;;;;;4.82;2.15;;;11.50;99.90;;;;;;5025409;28;20041;-85
2022/05/09 01:24:24;;;;;;;2.47;2.10;;;11.50;99.90;;;;;;5009165;28;20034;-85
2022/05/09 01:26:50;;;;;;;7.03;3.00;;;11.50;99.90;;;;;;4992187;28;20037;-84
2022/05/09 01:29:37;;;;;;;4.03;2.30;;;11.40;99.90;;;;;;5009746;28;20028;-85
2022/05/09 01:32:07;;;;;;;4.22;2.53;;;11.50;99.90;;;;;;5024952;28;20034;-84
2022/05/09 01:34:35;;;;;;;7.30;2.33;;;11.40;99.90;;;;;;5008462;28;20041;-84
2022/05/09 01:37:08;;;;;;;4.55;2.50;;;11.40;99.90;;;;;;5027159;28;20045;-84
2022/05/09 01:39:36;;;;;;;6.32;2.22;;;11.40;99.90;;;;;;5011194;28;20041;-84
2022/05/09 01:42:07;;;;;;;2.58;1.95;;;11.40;99.90;;;;;;5019265;28;20463;-85
2022/05/09 01:44:34;;;;;;;3.15;2.00;;;11.30;99.90;;;;;;5028508;28;20395;-84
2022/05/09 01:49:44;;;;;;;3.28;2.17;;;11.20;99.90;;;;;;5029319;28;20104;-84
2022/05/09 01:52:16;;;;;;;2.50;1.60;;;11.20;99.90;;;;;;5044898;28;20040;-85
2022/05/09 01:54:43;;;;;;;3.05;2.20;;;11.20;99.90;;;;;;4991974;28;20500;-84
2022/05/09 01:57:10;;;;;;;3.15;1.90;;;11.10;99.90;;;;;;5002756;28;20041;-85
2022/05/09 01:59:40;;;;;;;2.53;1.80;;;11.10;99.90;;;;;;5027668;28;20034;-84
2022/05/09 02:02:13;;;;;;;3.45;2.08;;;11.10;99.90;;;;;;5011292;28;20072;-84
2022/05/09 02:04:40;;;;;;;6.05;2.22;;;11.00;99.90;;;;;;5044634;28;20407;-85
2022/05/09 02:07:09;;;;;;;5.32;2.00;;;11.00;99.90;;;;;;5011149;28;20075;-84
2022/05/09 02:09:38;;;;;;;5.25;2.10;;;10.90;99.90;;;;;;5041250;28;20472;-84
2022/05/09 02:12:05;;;;;;;2.28;2.00;;;10.90;99.90;;;;;;5010701;28;20033;-84
2022/05/09 02:14:30;;;;;;;3.20;1.95;;;10.80;99.90;;;;;;4998950;28;20038;-84
2022/05/09 02:16:56;;;;;;;2.78;1.85;;;10.70;99.90;;;;;;5012088;28;20475;-84
2022/05/09 02:19:22;;;;;;;5.82;1.98;;;10.70;99.90;;;;;;5012588;28;20420;-84
2022/05/09 02:21:47;;;;;;;4.30;1.70;;;10.60;99.90;;;;;;5018610;28;20077;-84
2022/05/09 02:24:13;;;;;;;7.00;2.50;;;10.50;99.90;;;;;;5003802;28;20029;-84
2022/05/09 02:26:39;;;;;;;2.92;1.77;;;10.50;99.90;;;;;;5017900;28;20049;-85
2022/05/09 02:29:05;;;;;;;3.00;1.95;;;10.50;99.90;;;;;;5027251;28;20060;-84
2022/05/09 02:31:31;;;;;;;5.50;2.13;;;10.40;99.90;;;;;;5020361;28;20092;-84
2022/05/09 02:33:57;;;;;;;4.85;2.20;;;10.40;99.90;;;;;;5016530;28;20038;-84
2022/05/09 02:36:22;;;;;;;2.50;1.50;;;10.40;99.90;;;;;;4992855;28;20800;-84
2022/05/09 02:38:48;;;;;;;2.97;1.73;;;10.50;99.90;;;;;;4994624;28;20045;-84
2022/05/09 02:41:14;;;;;;;7.70;1.73;;;10.50;99.90;;;;;;5011341;28;20034;-84
2022/05/09 02:43:39;;;;;;;4.97;2.13;;;10.50;99.90;;;;;;5018114;28;20044;-85
2022/05/09 02:46:10;;;;;;;4.85;1.60;;;10.50;99.90;;;;;;4996919;28;20124;-84
2022/05/09 02:48:37;;;;;;;3.38;2.00;;;10.50;99.90;;;;;;5036851;28;20169;-85
2022/05/09 02:51:08;;;;;;;4.05;1.50;;;10.50;99.90;;;;;;5011650;28;20396;-84
2022/05/09 02:53:35;;;;;;;4.40;1.90;;;10.50;99.90;;;;;;5008558;28;20040;-85
2022/05/09 02:56:01;;;;;;;3.90;1.40;;;10.50;99.90;;;;;;5044592;28;20523;-85
2022/05/09 02:58:27;;;;;;;3.10;1.98;;;10.50;99.90;;;;;;5029739;28;20065;-84
2022/05/09 03:00:53;;;;;;;3.92;1.75;;;10.40;99.90;;;;;;5011282;28;20073;-84
2022/05/09 03:06:03;;;;;;;3.50;1.70;;;10.40;99.90;;;;;;5027423;28;20496;-84
2022/05/09 03:08:29;;;;;;;3.25;1.98;;;10.40;99.90;;;;;;5013436;28;20163;-84
2022/05/09 03:10:56;;;;;;;4.60;1.98;;;10.40;99.90;;;;;;5011930;28;20072;-84
2022/05/09 03:13:21;;;;;;;5.20;1.70;;;10.40;99.90;;;;;;5014817;28;20025;-83
2022/05/09 03:15:49;;;;;;;6.00;1.80;;;10.30;99.90;;;;;;5011217;28;20403;-84
2022/05/09 03:18:18;;;;;;;3.38;1.60;;;10.30;99.90;;;;;;5043479;28;20033;-84
2022/05/09 03:20:45;;;;;;;4.82;2.08;;;10.30;99.90;;;;;;5030805;28;20480;-84
2022/05/09 03:23:11;;;;;;;3.03;1.80;;;10.30;99.90;;;;;;5004696;28;20044;-84
2022/05/09 03:25:39;;;;;;;3.70;2.00;;;10.30;99.90;;;;;;5010579;28;20109;-85
2022/05/09 03:28:11;;;;;;;4.35;2.00;;;10.30;99.90;;;;;;4994024;28;20037;-84
2022/05/09 03:30:46;;;;;;;2.15;1.95;;;10.20;99.90;;;;;;5040370;28;20045;-85
2022/05/09 03:33:11;;;;;;;3.97;1.90;;;10.20;99.90;;;;;;5027535;28;20029;-84
2022/05/09 03:35:38;;;;;;;3.58;2.33;;;10.20;99.90;;;;;;5035914;28;20018;-85
2022/05/09 03:38:04;;;;;;;4.80;2.85;;;10.10;99.90;;;;;;5005435;28;20041;-84
2022/05/09 03:40:30;;;;;;;4.30;1.77;;;10.10;99.90;;;;;;5010604;28;20430;-84
2022/05/09 03:42:56;;;;;;;2.80;1.60;;;10.00;99.90;;;;;;5010679;28;20049;-84
2022/05/09 03:45:23;;;;;;;4.40;1.70;;;9.90;99.90;;;;;;5008102;28;20484;-84
2022/05/09 03:47:49;;;;;;;5.15;1.95;;;9.90;99.90;;;;;;5031163;28;20437;-84
2022/05/09 03:50:15;;;;;;;4.78;2.20;;;9.80;99.90;;;;;;4997706;28;20033;-84
2022/05/09 03:52:43;;;;;;;2.50;1.90;;;9.80;99.90;;;;;;5014455;28;20404;-84
2022/05/09 03:55:09;;;;;;;2.65;1.70;;;9.80;99.90;;;;;;5013361;28;20048;-84
2022/05/09 03:57:48;;;;;;;4.18;1.83;;;9.70;99.90;;;;;;5045774;28;20041;-83
2022/05/09 04:00:14;;;;;;;4.68;2.47;;;9.70;99.90;;;;;;5028804;28;20516;-84
2022/05/09 04:02:43;;;;;;;3.80;2.08;;;9.70;99.90;;;;;;5018241;28;20048;-84
2022/05/09 04:05:15;;;;;;;3.83;1.80;;;9.60;99.90;;;;;;5025060;28;20057;-84
2022/05/09 04:07:43;;;;;;;4.20;1.85;;;9.60;99.90;;;;;;5010124;28;20042;-84
2022/05/09 04:10:09;;;;;;;2.28;1.70;;;9.60;99.90;;;;;;5018557;28;20034;-84
2022/05/09 04:12:35;;;;;;;3.85;1.80;;;9.60;99.90;;;;;;5013514;28;20040;-84
2022/05/09 04:17:45;;;;;;;2.88;2.28;;;9.60;99.90;;;;;;5020174;28;20053;-84
2022/05/09 04:20:11;;;;;;;4.15;2.00;;;9.60;99.90;;;;;;5013479;28;20057;-85
2022/05/09 04:22:41;;;;;;;2.50;1.98;;;9.60;99.90;;;;;;5029173;28;20041;-84
2022/05/09 04:25:08;;;;;;;4.10;2.17;;;9.60;99.90;;;;;;5028224;28;20030;-83
2022/05/09 04:27:34;;;;;;;4.50;2.00;;;9.60;99.90;;;;;;5023659;28;20030;-84
2022/05/09 04:30:00;;;;;;;3.35;1.70;;;9.70;99.90;;;;;;5029675;28;20249;-83
2022/05/09 04:32:25;;;;;;;2.85;1.80;;;9.80;99.90;;;;;;5027082;28;20387;-84
2022/05/09 04:34:51;;;;;;;2.08;1.60;;;9.90;99.90;;;;;;5013130;28;20033;-84
2022/05/09 04:37:17;;;;;;;2.72;1.60;;;10.00;99.90;;;;;;4979706;28;20022;-84
2022/05/09 04:39:42;;;;;;;2.28;1.63;;;10.10;99.90;;;;;;5029313;28;20037;-84
2022/05/09 04:42:09;;;;;;;4.13;1.67;;;10.20;99.90;;;;;;5014207;28;20072;-82
2022/05/09 04:44:35;;;;;;;3.83;1.75;;;10.20;99.90;;;;;;5009919;28;20037;-83
2022/05/09 04:47:01;;;;;;;3.55;1.77;;;10.30;99.90;;;;;;4992703;28;20034;-82
2022/05/09 04:49:27;;;;;;;2.65;1.83;;;10.30;99.90;;;;;;4995740;28;20121;-83
2022/05/09 04:51:52;;;;;;;2.42;1.60;;;10.40;99.90;;;;;;5010511;28;20590;-83
2022/05/09 04:54:18;;;;;;;3.65;1.83;;;10.50;99.90;;;;;;5041068;28;20518;-83
2022/05/09 04:56:44;;;;;;;5.80;2.08;;;10.50;99.90;;;;;;5017537;28;20044;-84
2022/05/09 04:59:10;;;;;;;4.15;1.70;;;10.50;99.90;;;;;;5011698;28;20045;-82
2022/05/09 05:01:36;;;;;;;5.45;2.08;;;10.50;99.90;;;;;;5020054;28;20042;-84
2022/05/09 05:04:05;;;;;;;3.92;1.50;;;10.50;99.90;;;;;;5042143;28;20025;-83
2022/05/09 05:06:32;;;;;;;2.35;1.70;;;10.60;99.90;;;;;;5011330;28;20037;-84
2022/05/09 05:08:57;;;;;;;4.25;2.30;;;10.60;99.90;;;;;;5011938;28;20032;-84
2022/05/09 05:11:23;;;;;;;2.75;1.67;;;10.70;99.90;;;;;;5023530;28;20025;-85
2022/05/09 05:13:48;;;;;;;2.80;1.85;;;10.80;99.90;;;;;;5010060;28;20686;-83
2022/05/09 05:16:14;;;;;;;2.25;1.60;;;10.80;99.90;;;;;;5021658;28;20128;-83
2022/05/09 05:18:40;;;;;;;6.07;1.50;;;10.90;99.90;;;;;;5019601;28;20037;-84
2022/05/09 05:21:11;;;;;;;2.45;1.90;;;11.00;99.90;;;;;;5007472;28;20038;-83
2022/05/09 05:23:38;;;;;;;4.90;2.00;;;11.10;99.90;;;;;;5003574;28;20084;-84
2022/05/09 05:26:04;;;;;;;4.05;2.05;;;11.20;99.90;;;;;;5008361;28;20483;-83
2022/05/09 05:28:32;;;;;;;3.08;1.88;;;11.40;99.90;;;;;;5021120;28;20439;-84
2022/05/09 05:31:21;;;;;;;3.75;2.00;;;11.60;99.90;;;;;;5008476;28;20034;-84
2022/05/09 05:33:47;;;;;;;4.88;2.15;;;11.90;99.90;;;;;;5023870;28;20735;-83
2022/05/09 05:36:14;;;;;;;6.40;2.10;;;12.30;99.90;;;;;;5010007;28;20543;-81
2022/05/09 05:38:41;;;;;;;5.13;1.92;;;12.60;99.90;;;;;;4978304;28;20136;-80
2022/05/09 05:41:07;;;;;;;4.25;1.90;;;13.00;99.90;;;;;;5007858;28;20045;-80
2022/05/09 05:43:32;;;;;;;2.67;1.63;;;13.30;99.90;;;;;;4988424;28;20117;-80
2022/05/09 05:46:02;;;;;;;2.22;1.40;;;13.70;99.90;;;;;;4991926;28;20026;-80
2022/05/09 05:48:28;;;;;;;2.88;1.73;;;14.10;99.90;;;;;;5019295;28;20030;-81
2022/05/09 05:50:54;;;;;;;4.03;1.85;;;14.50;99.90;;;;;;4986926;28;20113;-80
2022/05/09 05:53:20;;;;;;;4.40;2.00;;;14.90;99.90;;;;;;5041828;28;20109;-79
2022/05/09 05:55:46;;;;;;;2.67;1.67;;;15.30;99.90;;;;;;5024897;28;20622;-80
2022/05/09 05:58:11;;;;;;;5.50;1.60;;;15.60;99.90;;;;;;5014195;28;20198;-80
2022/05/09 06:00:37;;;;;;;1.90;1.48;;;16.00;99.20;;;;;;4987265;28;20075;-81
2022/05/09 06:03:03;;;;;;;3.83;1.63;;;16.30;98.20;;;;;;4993960;28;20042;-81
2022/05/09 06:05:29;;;;;;;2.88;1.55;;;16.60;97.20;;;;;;5022702;28;20686;-81
2022/05/09 06:07:56;;;;;;;2.03;1.70;;;17.00;96.40;;;;;;4994906;28;20116;-81
2022/05/09 06:10:22;;;;;;;3.13;1.52;;;17.30;95.50;;;;;;5024788;28;20153;-80
2022/05/09 06:12:48;;;;;;;3.05;1.67;;;17.70;94.10;;;;;;5016603;28;20483;-81
2022/05/09 06:15:25;;;;;;;2.28;1.30;;;18.10;93.00;;;;;;5011728;28;20120;-79
2022/05/09 06:17:51;;;;;;;3.70;1.65;;;18.50;92.40;;;;;;5016932;28;20144;-80
2022/05/09 06:20:18;;;;;;;2.38;1.42;;;18.80;91.00;;;;;;5010886;28;20029;-80
2022/05/09 06:22:45;;;;;;;3.53;1.75;;;19.20;89.60;;;;;;5024940;28;20121;-81
2022/05/09 06:25:15;;;;;;;6.10;1.92;;;19.50;86.40;;;;;;5015332;28;20438;-81
2022/05/09 06:27:44;;;;;;;2.65;1.73;;;19.80;84.70;;;;;;5015352;28;20040;-81
2022/05/09 06:30:12;;;;;;;2.53;1.48;;;20.00;83.20;;;;;;5046702;28;20037;-81
2022/05/09 06:32:38;;;;;;;3.10;1.60;;;20.10;82.80;;;;;;5048298;28;20034;-80
2022/05/09 06:35:07;;;;;;;3.38;1.80;;;20.40;80.80;;;;;;5011887;28;20120;-80
2022/05/09 06:37:35;;;;;;;4.05;1.98;;;20.60;80.20;;;;;;5013509;28;20582;-80
2022/05/09 06:40:02;;;;;;;3.63;2.00;;;20.70;76.60;;;;;;5010171;28;20140;-81
2022/05/09 06:42:27;;;;;;;3.53;1.83;;;20.80;74.20;;;;;;5025832;28;20064;-80
2022/05/09 06:44:54;;;;;;;4.70;1.90;;;20.70;73.60;;;;;;4996608;28;20070;-79
2022/05/09 06:47:20;;;;;;;2.65;1.67;;;20.40;74.30;;;;;;5013365;28;20029;-80
2022/05/09 06:49:46;;;;;;;2.75;1.92;;;20.20;75.50;;;;;;4978419;28;20025;-80
2022/05/09 06:52:11;;;;;;;5.68;2.03;;;20.10;75.30;;;;;;5007567;28;21856;-79
2022/05/09 06:54:37;;;;;;;4.70;2.13;;;19.90;77.90;;;;;;5044168;28;20544;-80
2022/05/09 06:57:04;;;;;;;3.22;2.00;;;20.00;76.10;;;;;;5013840;28;20648;-80
2022/05/09 06:59:34;;;;;;;5.88;1.88;;;20.10;78.00;;;;;;5006781;28;20062;-80
2022/05/09 07:02:00;;;;;;;2.63;1.92;;;20.20;76.40;;;;;;5025279;28;20672;-81
2022/05/09 07:04:26;;;;;;;5.65;2.25;;;20.50;77.70;;;;;;5012106;28;20515;-80
2022/05/09 07:06:52;;;;;;;4.47;2.13;;;20.90;76.60;;;;;;4976094;28;20037;-80
2022/05/09 07:09:18;;;;;;;4.40;2.00;;;21.20;75.20;;;;;;5029960;28;20026;-81
2022/05/09 07:11:44;;;;;;;2.92;1.75;;;21.60;75.90;;;;;;5014891;28;20048;-80
2022/05/09 07:14:10;;;;;;;3.33;1.80;;;21.90;71.60;;;;;;5043627;28;20029;-81
2022/05/09 07:16:36;;;;;;;4.88;2.33;;;22.00;69.00;;;;;;5025207;28;20107;-81
2022/05/09 07:19:06;;;;;;;1.92;1.70;;;21.90;68.60;;;;;;5014072;28;20121;-81
2022/05/09 07:21:32;;;;;;;3.85;2.30;;;21.90;71.10;;;;;;4998172;28;20576;-79
2022/05/09 07:23:59;;;;;;;1.90;1.73;;;22.00;68.40;;;;;;5023217;28;20522;-80
2022/05/09 07:26:25;;;;;;;5.65;2.40;;;21.90;71.30;;;;;;5012677;28;20419;-81
2022/05/09 07:28:51;;;;;;;7.28;2.60;;;21.80;68.80;;;;;;4979620;28;20022;-80
2022/05/09 07:31:17;;;;;;;4.70;3.08;;;21.70;68.50;;;;;;5035125;28;20563;-80
2022/05/09 07:33:43;;;;;;;3.45;2.22;;;21.50;69.90;;;;;;4976968;28;20026;-82
2022/05/09 07:36:09;;;;;;;5.13;2.13;;;21.40;72.20;;;;;;5010820;28;20484;-82
2022/05/09 07:38:35;;;;;;;2.90;2.20;;;21.50;72.10;;;;;;5025961;28;20061;-80
2022/05/09 07:41:00;;;;;;;4.68;2.63;;;21.50;73.50;;;;;;5021104;28;20112;-82
2022/05/09 07:43:29;;;;;;;4.03;2.60;;;21.70;73.60;;;;;;5029340;28;20032;-82
2022/05/09 07:45:56;;;;;;;3.90;1.98;;;21.70;71.50;;;;;;5029591;28;20030;-83
2022/05/09 07:48:25;;;;;;;3.00;2.35;;;21.90;69.80;;;;;;5013689;28;20054;-82
2022/05/09 07:50:53;;;;;;;1.98;1.88;;;22.10;69.30;;;;;;5013999;28;20053;-82
2022/05/09 07:53:22;;;;;;;4.88;2.88;;;22.10;74.20;;;;;;5029124;28;20025;-81
2022/05/09 07:55:50;;;;;;;4.15;1.90;;;22.20;67.70;;;;;;5013919;28;20033;-84
2022/05/09 07:58:19;;;;;;;3.08;2.28;;;22.40;70.30;;;;;;5013309;28;20571;-83
2022/05/09 08:00:46;;;;;;;4.28;2.03;;;22.90;66.50;;;;;;5029547;28;20486;-81
2022/05/09 08:03:18;;;;;;;5.35;2.65;;;22.90;67.90;;;;;;5043791;28;20394;-83
2022/05/09 08:05:44;;;;;;;4.93;2.50;;;23.00;66.70;;;;;;5032349;28;20034;-83
2022/05/09 08:08:10;;;;;;;4.28;3.10;;;23.30;67.60;;;;;;5033543;28;20076;-82
2022/05/09 08:10:37;;;;;;;5.90;2.20;;;23.40;66.80;;;;;;5029861;28;20037;-82
2022/05/09 08:13:04;;;;;;;3.90;2.85;;;23.10;65.50;;;;;;5029253;28;20037;-81
2022/05/09 08:15:31;;;;;;;16.42;5.43;;;23.00;65.60;;;;;;5020754;28;20116;-82
2022/05/09 08:17:58;;;;;;;4.10;2.55;;;22.70;68.40;;;;;;5014106;28;20034;-82
2022/05/09 08:20:24;;;;;;;5.78;2.95;;;22.60;69.50;;;;;;5004717;28;20077;-82
2022/05/09 08:23:06;;;;;;;3.45;2.65;;;22.10;69.10;;;;;;5038362;28;20037;-81
2022/05/09 08:25:37;;;;;;;5.90;2.80;;;21.50;70.30;;;;;;5024117;28;20025;-82
2022/05/09 08:28:04;;;;;;;3.85;2.65;;;21.10;71.90;;;;;;5019995;28;20116;-81
2022/05/09 08:30:33;;;;;;;4.03;2.70;;;20.80;74.30;;;;;;5025576;28;20451;-82
2022/05/09 08:33:00;;;;;;;7.30;3.20;;;20.60;73.90;;;;;;5026145;28;20040;-82
2022/05/09 08:35:26;;;;;;;4.50;3.00;;;20.50;75.10;;;;;;5028468;28;20572;-82
2022/05/09 08:37:52;;;;;;;4.10;2.60;;;20.30;74.80;;;;;;5010067;28;20069;-81
2022/05/09 08:40:21;;;;;;;5.38;3.00;;;20.20;75.60;;;;;;5029981;28;20107;-82
2022/05/09 08:43:09;;;;;;;5.25;3.10;;;20.10;75.10;;;;;;5000489;28;20037;-81
2022/05/09 08:45:47;;;;;;;6.38;2.70;;;20.10;78.00;;;;;;5014066;28;20052;-80
2022/05/09 08:48:43;;;;;;;3.35;2.72;;;20.20;79.90;;;;;;5036529;28;20034;-81
2022/05/09 08:52:06;;;;;;;4.80;2.63;;;20.20;75.50;;;;;;5018990;28;20026;-81
2022/05/09 08:54:32;;;;;;;3.33;2.90;;;20.20;77.40;;;;;;4979809;28;20531;-82
2022/05/09 08:57:03;;;;;;;3.38;2.40;;;20.30;82.00;;;;;;4990745;28;20037;-80
2022/05/09 08:59:36;;;;;;;4.57;2.95;;;20.30;77.20;;;;;;5001698;28;20041;-82
2022/05/09 09:02:15;;;;;;;2.88;2.55;;;20.50;79.40;;;;;;5028216;28;20072;-82
2022/05/09 09:04:49;;;;;;;5.65;2.30;;;20.60;73.90;;;;;;5030153;28;20037;-83
2022/05/09 09:07:49;;;;;;;2.58;2.20;;;20.60;75.00;;;;;;5012482;28;20060;-82
2022/05/09 09:10:48;;;;;;;3.55;2.20;;;20.60;77.20;;;;;;5023677;28;20087;-82
2022/05/09 09:13:23;;;;;;;6.07;2.60;;;20.60;76.60;;;;;;5004991;28;20083;-83
2022/05/09 09:16:12;;;;;;;3.15;2.85;;;20.70;74.80;;;;;;4993360;28;20025;-83
2022/05/09 09:18:55;;;;;;;3.70;2.28;;;20.60;74.00;;;;;;5021219;28;20029;-83
2022/05/09 09:21:42;;;;;;;5.20;2.58;;;20.60;76.40;;;;;;5006566;28;20037;-83
2022/05/09 09:24:32;;;;;;;3.35;2.60;;;20.60;76.10;;;;;;5024324;28;20022;-81
2022/05/09 09:27:40;;;;;;;2.67;2.30;;;20.60;75.70;;;;;;5024313;28;20117;-81
2022/05/09 09:30:13;;;;;;;2.90;2.50;;;20.60;77.70;;;;;;4992436;28;20025;-83
2022/05/09 09:32:44;;;;;;;3.00;2.13;;;20.60;72.90;;;;;;5038129;28;20022;-81
2022/05/09 09:35:34;;;;;;;3.78;2.63;;;20.40;74.20;;;;;;5002378;28;20447;-81
2022/05/09 09:38:17;;;;;;;6.75;2.70;;;20.30;77.40;;;;;;5024120;28;20037;-80
2022/05/09 09:40:43;;;;;;;2.40;2.08;;;20.30;78.20;;;;;;5008324;28;20025;-81
2022/05/09 09:43:09;;;;;;;3.92;2.60;;;20.30;77.50;;;;;;5005100;28;20520;-81
2022/05/09 09:45:44;;;;;;;6.28;2.95;;;20.20;74.80;;;;;;4990481;28;20034;-81
2022/05/09 09:48:22;;;;;;;4.30;2.85;;;20.20;77.20;;;;;;5019826;28;20459;-80
2022/05/09 09:51:01;;;;;;;6.15;3.08;;;20.20;75.60;;;;;;5030664;28;20029;-81
2022/05/09 09:53:34;;;;;;;3.75;2.33;;;20.20;73.00;;;;;;5022280;28;20026;-81
2022/05/09 09:56:08;;;;;;;2.63;2.35;;;20.10;73.70;;;;;;5023650;28;20036;-81
2022/05/09 09:58:34;;;;;;;4.78;2.92;;;20.00;74.70;;;;;;5001245;28;20117;-81
2022/05/09 10:01:22;;;;;;;3.80;2.40;;;20.00;73.50;;;;;;5007889;28;20038;-81
2022/05/09 10:04:13;;;;;;;4.57;2.80;;;19.90;73.50;;;;;;5021373;28;20041;-80
2022/05/09 10:07:03;;;;;;;4.68;2.60;;;19.90;76.40;;;;;;5005199;28;20064;-80
2022/05/09 10:09:55;;;;;;;3.92;2.40;;;19.70;74.30;;;;;;5021049;28;20452;-80
2022/05/09 10:12:27;;;;;;;3.38;2.22;;;19.70;74.30;;;;;;5006209;28;20045;-80
2022/05/09 10:14:53;;;;;;;4.03;2.55;;;19.70;75.30;;;;;;5003949;28;20077;-80
2022/05/09 10:17:25;;;;;;;2.63;2.42;;;19.70;73.80;;;;;;5006924;28;20034;-81
2022/05/09 10:19:53;;;;;;;4.15;2.58;;;19.70;74.30;;;;;;4998443;28;20026;-81
2022/05/09 10:25:25;;;;;;;6.68;2.95;;;19.70;74.70;;;;;;5019588;28;20033;-80
2022/05/09 10:28:03;;;;;;;4.72;3.40;;;19.80;75.70;;;;;;5020236;28;20065;-81
2022/05/09 10:30:33;;;;;;;3.17;2.17;;;19.80;74.30;;;;;;5024687;28;20029;-81
2022/05/09 10:33:10;;;;;;;2.88;2.25;;;20.00;77.00;;;;;;5022580;28;20474;-81
2022/05/09 10:35:45;;;;;;;5.20;2.70;;;20.10;78.50;;;;;;5014054;28;20084;-81
2022/05/09 10:38:33;;;;;;;3.70;2.43;;;20.30;76.40;;;;;;5016346;28;20046;-82
2022/05/09 10:41:32;;;;;;;4.40;2.38;;;20.30;71.40;;;;;;5003071;28;20249;-81
2022/05/09 10:44:22;;;;;;;3.42;2.53;;;20.40;69.60;;;;;;5007937;28;20671;-82
2022/05/09 10:46:56;;;;;;;3.60;2.15;;;20.40;69.20;;;;;;5033331;28;20057;-81
2022/05/09 10:49:26;;;;;;;3.28;2.78;;;20.50;72.20;;;;;;5023730;28;20021;-80
2022/05/09 10:52:30;;;;;;;2.83;2.38;;;20.70;71.40;;;;;;5025854;28;20037;-80
2022/05/09 10:54:59;;;;;;;3.63;2.03;;;20.80;68.20;;;;;;4998351;28;20480;-80
2022/05/09 10:57:33;;;;;;;2.85;2.40;;;20.90;69.70;;;;;;5023954;28;20029;-81
2022/05/09 11:00:24;;;;;;;3.05;2.78;;;20.90;67.50;;;;;;5018687;28;20463;-81
2022/05/09 11:03:16;;;;;;;2.63;2.00;;;21.00;68.40;;;;;;4989380;28;20065;-80
2022/05/09 11:06:13;;;;;;;2.97;2.15;;;21.10;68.80;;;;;;5016496;28;20036;-81
2022/05/09 11:08:57;;;;;;;2.50;2.03;;;21.00;70.50;;;;;;5008954;28;20025;-81
2022/05/09 11:11:38;;;;;;;5.65;2.30;;;21.10;67.40;;;;;;5027510;28;20037;-80
2022/05/09 11:14:41;;;;;;;2.55;2.30;;;21.00;67.50;;;;;;5026760;28;20108;-80
2022/05/09 11:17:24;;;;;;;5.05;2.45;;;20.90;67.40;;;;;;5001865;28;20060;-81
2022/05/09 11:20:02;;;;;;;4.63;2.67;;;20.90;70.10;;;;;;5028097;28;20033;-81
2022/05/09 11:22:46;;;;;;;2.22;2.03;;;20.80;69.30;;;;;;5028673;28;20053;-82
2022/05/09 11:25:42;;;;;;;2.53;2.33;;;20.80;67.70;;;;;;5026361;28;20052;-82
2022/05/09 11:28:19;;;;;;;4.18;2.65;;;20.90;68.00;;;;;;5023722;28;20113;-83
2022/05/09 11:31:05;;;;;;;5.88;2.70;;;21.00;69.80;;;;;;5011612;28;20025;-82
2022/05/09 11:33:48;;;;;;;4.05;2.22;;;21.10;71.70;;;;;;5006169;28;20033;-83
2022/05/09 11:36:33;;;;;;;3.05;2.75;;;21.20;66.70;;;;;;5035173;28;20036;-83
2022/05/09 11:39:24;;;;;;;4.00;2.63;;;21.20;68.40;;;;;;5019392;28;20026;-83
2022/05/09 11:45:41;;;;;;;4.00;2.28;;;21.20;69.90;;;;;;5019811;28;20479;-82
2022/05/09 11:48:25;;;;;;;3.88;2.17;;;21.40;67.10;;;;;;4998071;28;20025;-84
2022/05/09 11:51:01;;;;;;;2.75;2.03;;;21.80;69.70;;;;;;5014374;28;20034;-81
2022/05/09 11:53:31;;;;;;;2.30;2.10;;;22.10;65.70;;;;;;5024534;28;20029;-82
2022/05/09 11:55:57;;;;;;;3.72;2.47;;;22.30;62.80;;;;;;5021178;28;20033;-81
2022/05/09 11:58:26;;;;;;;2.90;2.13;;;22.30;62.20;;;;;;5023404;28;20120;-83
2022/05/09 12:00:53;;;;;;;2.72;2.50;;;22.40;62.40;;;;;;5024156;28;20030;-83
2022/05/09 12:03:40;;;;;;;3.33;2.78;;;22.30;62.70;;;;;;5009840;28;20036;-82
2022/05/09 12:06:07;;;;;;;2.95;2.65;;;22.30;65.30;;;;;;5023781;28;20112;-84
2022/05/09 12:08:45;;;;;;;2.53;2.30;;;22.30;65.40;;;;;;5013417;28;20030;-82
2022/05/09 12:11:17;;;;;;;3.03;2.45;;;22.30;62.00;;;;;;5020274;28;20472;-83
2022/05/09 12:13:43;;;;;;;2.58;2.10;;;22.40;60.70;;;;;;5023539;28;20041;-84
2022/05/09 12:16:10;;;;;;;2.55;2.00;;;22.40;65.90;;;;;;5002619;28;20013;-82
2022/05/09 12:19:16;;;;;;;2.03;1.80;;;22.50;61.00;;;;;;5011311;28;20074;-85
2022/05/09 12:21:41;;;;;;;3.65;2.28;;;22.60;60.30;;;;;;4988592;28;20049;-81
2022/05/09 12:24:13;;;;;;;2.35;2.15;;;22.70;62.00;;;;;;5007465;28;20025;-81
2022/05/09 12:26:41;;;;;;;4.22;2.50;;;22.80;58.80;;;;;;5015225;28;20857;-82
2022/05/09 12:29:18;;;;;;;2.53;2.25;;;22.90;59.00;;;;;;5017220;28;20080;-82
2022/05/09 12:31:47;;;;;;;6.07;2.30;;;23.00;57.20;;;;;;5005714;28;20034;-81
2022/05/09 12:34:25;;;;;;;4.00;2.03;;;23.20;58.60;;;;;;5015159;28;20036;-81
2022/05/09 12:36:51;;;;;;;7.90;2.90;;;23.40;56.10;;;;;;5037454;28;20040;-82
2022/05/09 12:39:28;;;;;;;1.92;1.58;;;23.60;57.90;;;;;;5000752;28;20033;-81
2022/05/09 12:41:58;;;;;;;8.15;2.72;;;23.60;56.40;;;;;;5021082;28;20029;-81
2022/05/09 12:44:27;;;;;;;2.50;2.30;;;23.70;56.30;;;;;;5032454;28;20415;-81
2022/05/09 12:47:04;;;;;;;2.38;2.08;;;23.70;60.20;;;;;;5028339;28;20112;-82
2022/05/09 12:49:48;;;;;;;3.47;2.13;;;23.70;55.90;;;;;;5014107;28;20034;-81
2022/05/09 12:52:21;;;;;;;2.28;1.88;;;23.70;56.00;;;;;;5010873;28;20052;-82
2022/05/09 12:55:52;;;;;;;2.33;2.10;;;23.60;56.00;;;;;;5025289;23;20081;-81
2022/05/09 12:57:35;;;;;;;1.88;1.60;;;23.80;56.20;;;;;;5025227;28;20033;-82
2022/05/09 13:00:27;;;;;;;2.03;1.77;;;24.00;56.80;;;;;;5034520;28;20029;-80
2022/05/09 13:03:02;;;;;;;2.20;2.00;;;24.20;55.00;;;;;;5006483;28;20029;-80
2022/05/09 13:05:38;;;;;;;2.22;1.88;;;24.40;56.10;;;;;;4992514;28;20085;-82
2022/05/09 13:08:05;;;;;;;;;;;24.50;54.30;;;;;;4991360;28;20041;-81
2022/05/09 13:10:31;;;;;;;2.25;2.05;;;24.60;54.60;;;;;;5013364;28;19913;-79
2022/05/09 13:13:05;;;;;;;3.92;1.77;;;24.80;54.20;;;;;;4994782;28;20047;-81
2022/05/09 13:15:33;;;;;;;3.88;2.05;;;24.70;52.90;;;;;;4988002;28;20069;-79
2022/05/09 13:18:03;;;;;;;3.22;2.47;;;24.70;53.70;;;;;;5004987;28;20265;-81
2022/05/09 13:20:38;;;;;;;3.10;2.08;;;24.80;54.20;;;;;;5002488;28;20029;-81
2022/05/09 13:23:07;;;;;;;2.22;2.03;;;24.80;53.40;;;;;;5001478;28;20053;-81